Time;durP1;ratioP1;P1;durP2;ratioP2;P2;SDS_P1;SDS_P2;PMS_P1;PMS_P2;Temp;Humidity;BMP_temperature;BMP_pressure;BME280_temperature;BME280_humidity;BME280_pressure;Samples;Min_cycle;Max_cycle;Signal;HPM_P1;HPM_P2
2021/03/08 00:00:55;;;;;;;4.25;1.10;;;17.80;46.00;;;;;;5094787;28;20403;-70
2021/03/08 00:03:23;;;;;;;8.88;1.38;;;17.90;45.60;;;;;;5096626;28;20353;-71
2021/03/08 00:05:50;;;;;;;3.35;1.10;;;17.50;46.60;;;;;;5093749;28;20033;-72
2021/03/08 00:08:16;;;;;;;3.45;0.80;;;17.50;46.30;;;;;;5097100;28;20023;-71
2021/03/08 00:10:43;;;;;;;12.05;2.88;;;17.20;47.50;;;;;;5102880;28;20349;-71
2021/03/08 00:13:09;;;;;;;4.50;0.90;;;17.50;46.60;;;;;;5102872;28;20388;-71
2021/03/08 00:15:36;;;;;;;4.10;1.13;;;17.30;47.50;;;;;;5101206;28;20346;-71
2021/03/08 00:18:03;;;;;;;4.53;1.40;;;17.10;48.20;;;;;;5101717;28;20074;-71
2021/03/08 00:20:30;;;;;;;4.07;1.30;;;17.20;48.50;;;;;;5102484;28;20446;-71
2021/03/08 00:22:57;;;;;;;3.28;1.38;;;17.10;48.60;;;;;;5101336;28;20039;-71
2021/03/08 00:25:26;;;;;;;3.90;1.30;;;17.20;48.60;;;;;;5100804;28;20053;-71
2021/03/08 00:27:53;;;;;;;3.45;1.00;;;17.50;47.70;;;;;;5103531;28;20104;-71
2021/03/08 00:30:20;;;;;;;4.57;1.10;;;17.30;48.00;;;;;;5103760;28;20032;-72
2021/03/08 00:32:48;;;;;;;7.32;1.60;;;17.30;47.70;;;;;;5106508;28;20107;-75
2021/03/08 00:35:16;;;;;;;2.63;1.10;;;17.20;47.80;;;;;;5105954;28;20032;-75
2021/03/08 00:37:43;;;;;;;6.95;1.33;;;17.10;48.10;;;;;;5108256;28;20031;-74
2021/03/08 00:40:12;;;;;;;2.47;1.10;;;17.40;46.50;;;;;;5106887;28;20362;-71
2021/03/08 00:42:40;;;;;;;2.75;1.27;;;17.20;46.20;;;;;;5105360;28;20477;-72
2021/03/08 00:45:10;;;;;;;3.17;1.10;;;17.50;45.60;;;;;;5107421;28;20032;-70
2021/03/08 00:47:37;;;;;;;7.95;1.70;;;17.10;46.40;;;;;;5098811;28;20101;-71
2021/03/08 00:50:06;;;;;;;5.97;1.95;;;16.70;47.70;;;;;;5104033;28;20115;-71
2021/03/08 00:52:33;;;;;;;4.53;1.40;;;16.90;47.90;;;;;;5105977;28;20506;-71
2021/03/08 00:54:59;;;;;;;4.32;1.20;;;16.50;48.40;;;;;;5103073;28;20028;-71
2021/03/08 00:57:26;;;;;;;3.13;1.25;;;16.40;48.70;;;;;;5103417;28;20031;-71
2021/03/08 00:59:52;;;;;;;5.30;1.05;;;16.50;48.80;;;;;;5103105;28;20027;-71
2021/03/08 01:02:19;;;;;;;3.38;1.08;;;16.40;49.00;;;;;;5104246;28;20024;-71
2021/03/08 01:04:45;;;;;;;2.90;1.10;;;16.20;49.20;;;;;;5090558;28;20035;-71
2021/03/08 01:07:12;;;;;;;4.35;1.45;;;16.30;49.20;;;;;;5096245;28;20404;-71
2021/03/08 01:09:38;;;;;;;7.55;2.13;;;16.10;49.40;;;;;;5099839;28;20044;-70
2021/03/08 01:12:06;;;;;;;5.55;1.63;;;15.80;50.40;;;;;;5103155;28;20155;-70
2021/03/08 01:14:33;;;;;;;6.95;1.50;;;15.80;50.50;;;;;;5091576;28;20056;-70
2021/03/08 01:16:59;;;;;;;4.07;1.67;;;15.60;50.80;;;;;;5097374;28;20111;-71
2021/03/08 01:19:26;;;;;;;5.95;1.73;;;15.50;51.40;;;;;;5095535;28;20024;-71
2021/03/08 01:21:52;;;;;;;8.38;2.17;;;15.60;50.40;;;;;;5097805;28;20043;-70
2021/03/08 01:24:19;;;;;;;9.60;2.42;;;15.70;50.30;;;;;;5097315;28;20024;-71
2021/03/08 01:26:45;;;;;;;9.73;2.10;;;15.40;50.50;;;;;;5091824;27;20102;-71
2021/03/08 01:29:13;;;;;;;3.97;1.50;;;15.30;51.10;;;;;;5102314;28;20100;-71
2021/03/08 01:31:39;;;;;;;11.55;2.35;;;15.20;51.20;;;;;;5100300;28;20513;-72
2021/03/08 01:34:05;;;;;;;8.32;1.90;;;15.10;51.00;;;;;;5085749;28;20047;-71
2021/03/08 01:36:32;;;;;;;14.55;3.35;;;15.20;50.80;;;;;;5095475;28;20020;-70
2021/03/08 01:38:58;;;;;;;12.20;2.35;;;15.10;51.20;;;;;;5100061;28;20437;-72
2021/03/08 01:41:25;;;;;;;6.82;2.60;;;15.10;51.10;;;;;;5101235;28;20054;-71
2021/03/08 01:43:51;;;;;;;16.70;2.65;;;14.70;52.00;;;;;;5102620;28;20056;-72
2021/03/08 01:46:18;;;;;;;8.55;3.33;;;14.50;52.60;;;;;;5097206;28;20032;-71
2021/03/08 01:48:45;;;;;;;9.18;2.42;;;14.50;52.40;;;;;;5097668;28;20039;-71
2021/03/08 01:51:11;;;;;;;7.85;2.10;;;14.50;52.20;;;;;;5090501;28;20808;-70
2021/03/08 01:53:38;;;;;;;8.70;2.55;;;14.60;51.60;;;;;;5088725;28;20564;-70
2021/03/08 01:56:05;;;;;;;9.70;2.08;;;14.60;52.10;;;;;;5095588;28;20047;-71
2021/03/08 01:58:32;;;;;;;11.30;2.75;;;14.80;51.30;;;;;;5097860;28;20028;-70
2021/03/08 02:00:59;;;;;;;6.07;2.60;;;15.10;51.00;;;;;;5101003;28;20043;-71
2021/03/08 02:03:26;;;;;;;12.07;4.15;;;15.00;51.10;;;;;;5096173;28;20028;-71
2021/03/08 02:05:53;;;;;;;13.13;3.05;;;15.00;51.30;;;;;;5098324;28;20107;-71
2021/03/08 02:08:21;;;;;;;10.65;2.78;;;14.90;50.70;;;;;;5098330;28;20031;-71
2021/03/08 02:10:48;;;;;;;10.10;2.30;;;14.70;51.60;;;;;;5096865;28;20027;-71
2021/03/08 02:13:53;;;;;;;13.38;3.08;;;14.60;51.40;;;;;;5096052;28;20117;-71
2021/03/08 02:16:35;;;;;;;14.50;3.60;;;14.60;51.90;;;;;;5092005;28;20489;-70
2021/03/08 02:19:20;;;;;;;19.35;3.63;;;14.70;52.20;;;;;;5100991;28;20123;-71
2021/03/08 02:22:01;;;;;;;16.08;4.07;;;14.60;51.40;;;;;;5105354;28;20019;-71
2021/03/08 02:24:46;;;;;;;23.23;5.18;;;14.60;52.40;;;;;;5095965;28;20035;-71
2021/03/08 02:27:41;;;;;;;15.40;4.70;;;14.50;52.70;;;;;;5098754;28;20397;-72
2021/03/08 02:30:42;;;;;;;24.58;11.27;;;14.30;52.00;;;;;;5101154;28;20111;-71
2021/03/08 02:33:10;;;;;;;30.23;16.73;;;14.10;52.70;;;;;;5102248;28;20495;-70
2021/03/08 02:35:41;;;;;;;13.68;4.18;;;14.10;54.20;;;;;;5100209;28;20039;-71
2021/03/08 02:38:11;;;;;;;19.50;4.25;;;14.00;53.20;;;;;;5099568;28;20162;-70
2021/03/08 02:41:04;;;;;;;58.83;26.20;;;14.00;54.20;;;;;;5096190;28;20061;-70
2021/03/08 02:43:36;;;;;;;30.27;6.00;;;13.80;54.10;;;;;;5059423;28;20060;-70
2021/03/08 02:46:21;;;;;;;24.00;5.83;;;13.90;53.40;;;;;;5099656;28;20027;-70
2021/03/08 02:48:49;;;;;;;27.38;15.50;;;13.90;55.20;;;;;;5101468;28;20038;-71
2021/03/08 02:51:17;;;;;;;24.30;7.05;;;13.80;54.50;;;;;;5094001;28;20327;-71
2021/03/08 02:53:46;;;;;;;22.60;5.72;;;13.80;54.90;;;;;;5089049;28;20024;-71
2021/03/08 02:56:17;;;;;;;25.75;6.20;;;13.80;54.70;;;;;;5097217;28;20023;-71
2021/03/08 02:58:48;;;;;;;27.55;7.80;;;13.70;55.20;;;;;;5101075;28;20080;-71
2021/03/08 03:01:16;;;;;;;23.42;5.88;;;13.60;54.50;;;;;;5097102;28;20365;-71
2021/03/08 03:03:45;;;;;;;30.02;5.80;;;13.40;54.50;;;;;;5093443;28;20454;-71
2021/03/08 03:06:13;;;;;;;20.13;4.55;;;13.30;55.30;;;;;;5082942;28;20055;-71
2021/03/08 03:08:42;;;;;;;23.20;5.13;;;13.20;56.00;;;;;;5091951;28;20027;-71
2021/03/08 03:11:09;;;;;;;22.05;5.45;;;13.20;55.90;;;;;;5085299;28;20120;-71
2021/03/08 03:13:38;;;;;;;18.50;5.70;;;13.30;55.80;;;;;;5091757;28;20035;-72
2021/03/08 03:16:06;;;;;;;15.25;4.30;;;13.20;55.60;;;;;;5100188;28;20357;-71
2021/03/08 03:18:35;;;;;;;21.48;4.63;;;13.10;56.40;;;;;;5095273;28;20449;-71
2021/03/08 03:21:06;;;;;;;22.52;5.13;;;13.00;56.20;;;;;;5095029;28;20027;-70
2021/03/08 03:23:36;;;;;;;33.45;6.05;;;12.90;56.40;;;;;;5096120;28;20058;-70
2021/03/08 03:26:05;;;;;;;31.20;8.05;;;12.90;55.90;;;;;;5095135;28;20023;-71
2021/03/08 03:28:32;;;;;;;26.45;5.95;;;13.00;56.90;;;;;;5092540;28;20023;-70
2021/03/08 03:30:59;;;;;;;30.08;6.97;;;13.00;55.70;;;;;;5100053;28;20023;-72
2021/03/08 03:33:28;;;;;;;33.08;5.32;;;12.90;56.10;;;;;;5102040;28;20095;-72
2021/03/08 03:35:54;;;;;;;27.05;7.78;;;12.90;55.30;;;;;;5099995;28;20027;-71
2021/03/08 03:38:22;;;;;;;19.10;4.40;;;12.80;56.60;;;;;;5101253;28;20158;-71
2021/03/08 03:40:50;;;;;;;29.27;5.68;;;12.70;56.50;;;;;;5078380;28;20349;-71
2021/03/08 03:43:17;;;;;;;17.45;5.05;;;12.70;55.70;;;;;;5100555;28;20101;-71
2021/03/08 03:45:44;;;;;;;29.73;5.97;;;12.70;56.40;;;;;;5101062;28;20352;-71
2021/03/08 03:48:11;;;;;;;26.02;7.65;;;12.70;56.30;;;;;;5097107;28;20027;-71
2021/03/08 03:50:38;;;;;;;19.35;6.38;;;12.60;57.20;;;;;;5097354;28;20020;-71
2021/03/08 03:53:06;;;;;;;27.17;4.97;;;12.60;56.80;;;;;;5096132;28;20063;-72
2021/03/08 03:55:33;;;;;;;22.20;3.85;;;12.50;56.70;;;;;;5097783;28;20172;-71
2021/03/08 03:58:28;;;;;;;19.17;4.32;;;12.50;56.90;;;;;;5093109;28;20030;-70
2021/03/08 04:01:03;;;;;;;23.50;4.63;;;12.40;56.40;;;;;;5092669;28;20023;-70
2021/03/08 04:03:50;;;;;;;22.00;4.43;;;12.40;56.60;;;;;;5097033;28;20056;-71
2021/03/08 04:06:19;;;;;;;14.07;4.22;;;12.30;56.80;;;;;;5098497;28;20020;-70
2021/03/08 04:08:48;;;;;;;14.95;4.65;;;12.30;57.10;;;;;;5099471;28;20476;-70
2021/03/08 04:11:17;;;;;;;13.77;4.75;;;12.20;56.60;;;;;;5102629;28;20057;-70
2021/03/08 04:13:46;;;;;;;13.82;3.75;;;12.10;56.80;;;;;;5099259;28;20454;-70
2021/03/08 04:16:17;;;;;;;27.95;5.30;;;12.10;56.60;;;;;;5094234;28;20031;-70
2021/03/08 04:18:47;;;;;;;33.45;7.78;;;12.10;57.00;;;;;;5095344;28;20035;-70
2021/03/08 04:21:14;;;;;;;26.50;5.60;;;12.20;56.40;;;;;;5099942;28;20039;-71
2021/03/08 04:23:42;;;;;;;30.05;5.53;;;12.10;57.20;;;;;;5099844;28;20209;-71
2021/03/08 04:26:11;;;;;;;16.77;4.50;;;12.10;56.50;;;;;;5099408;28;20051;-70
2021/03/08 04:28:40;;;;;;;28.48;6.00;;;12.00;57.10;;;;;;5093420;28;20078;-70
2021/03/08 04:31:07;;;;;;;27.77;6.07;;;12.00;56.70;;;;;;5088825;28;20077;-71
2021/03/08 04:33:34;;;;;;;29.42;5.55;;;12.20;57.00;;;;;;5093175;28;20110;-70
2021/03/08 04:36:02;;;;;;;25.73;5.47;;;12.10;57.10;;;;;;5093276;28;20032;-70
2021/03/08 04:38:30;;;;;;;26.70;5.03;;;12.00;57.30;;;;;;5100608;28;20016;-70
2021/03/08 04:40:57;;;;;;;21.00;5.10;;;12.00;57.70;;;;;;5094945;28;20019;-71
2021/03/08 04:43:24;;;;;;;26.70;6.85;;;12.00;57.80;;;;;;5097506;28;20448;-71
2021/03/08 04:45:55;;;;;;;20.90;5.13;;;12.00;57.10;;;;;;5098958;28;20468;-71
2021/03/08 04:48:24;;;;;;;18.95;5.00;;;11.90;57.70;;;;;;5102214;28;20024;-71
2021/03/08 04:50:52;;;;;;;23.15;5.97;;;11.90;57.70;;;;;;5099562;28;20063;-71
2021/03/08 04:53:19;;;;;;;26.02;5.18;;;11.90;58.00;;;;;;5098532;28;20023;-71
2021/03/08 04:55:47;;;;;;;31.77;5.80;;;11.90;57.80;;;;;;5095759;28;20015;-71
2021/03/08 04:58:14;;;;;;;17.20;5.43;;;12.00;58.50;;;;;;5101425;28;20303;-70
2021/03/08 05:00:40;;;;;;;28.90;6.63;;;12.00;57.80;;;;;;5091503;28;20043;-71
2021/03/08 05:03:09;;;;;;;34.13;6.90;;;12.00;57.40;;;;;;5099501;28;20028;-71
2021/03/08 05:05:36;;;;;;;30.77;7.32;;;12.00;57.10;;;;;;5101067;28;20023;-71
2021/03/08 05:08:07;;;;;;;29.80;6.88;;;12.00;56.70;;;;;;5099071;28;20133;-70
2021/03/08 05:10:36;;;;;;;43.65;9.05;;;12.00;58.00;;;;;;5094480;28;20032;-71
2021/03/08 05:13:05;;;;;;;29.63;6.47;;;11.90;57.30;;;;;;5095732;28;20444;-71
2021/03/08 05:15:33;;;;;;;17.30;4.80;;;11.80;57.00;;;;;;5098193;28;20025;-71
2021/03/08 05:18:01;;;;;;;23.33;5.78;;;11.80;58.00;;;;;;5103750;28;20454;-71
2021/03/08 05:20:30;;;;;;;27.67;6.18;;;11.80;57.00;;;;;;5105494;28;20042;-72
2021/03/08 05:22:58;;;;;;;23.05;5.20;;;11.80;56.70;;;;;;5105858;28;20134;-72
2021/03/08 05:25:25;;;;;;;35.58;6.70;;;11.80;57.70;;;;;;5104597;28;20038;-71
2021/03/08 05:27:52;;;;;;;36.63;7.45;;;11.80;57.00;;;;;;5106358;28;20100;-71
2021/03/08 05:30:21;;;;;;;25.50;5.07;;;11.70;57.60;;;;;;5102606;28;20020;-71
2021/03/08 05:33:05;;;;;;;19.27;4.93;;;11.70;58.00;;;;;;5092685;28;20024;-71
2021/03/08 05:35:35;;;;;;;22.45;5.20;;;11.60;57.80;;;;;;5089115;28;20027;-70
2021/03/08 05:38:04;;;;;;;30.92;6.35;;;11.60;57.60;;;;;;5095203;28;20031;-70
2021/03/08 05:40:41;;;;;;;23.55;6.25;;;11.60;58.10;;;;;;5096238;28;20158;-71
2021/03/08 05:43:14;;;;;;;15.07;4.35;;;11.50;58.00;;;;;;5096556;28;20027;-71
2021/03/08 05:46:12;;;;;;;30.05;7.05;;;11.40;58.40;;;;;;5099709;28;20070;-71
2021/03/08 05:49:02;;;;;;;22.67;5.70;;;11.60;57.60;;;;;;5069878;28;20150;-71
2021/03/08 05:51:52;;;;;;;23.75;5.18;;;11.60;56.90;;;;;;5102752;28;20518;-70
2021/03/08 05:54:53;;;;;;;27.50;5.47;;;11.50;57.20;;;;;;5099694;28;20032;-71
2021/03/08 05:57:56;;;;;;;18.65;4.60;;;11.40;56.90;;;;;;5101870;28;20188;-71
2021/03/08 06:00:55;;;;;;;17.95;4.57;;;11.30;57.70;;;;;;5101247;28;20032;-71
2021/03/08 06:03:58;;;;;;;28.40;5.90;;;11.20;57.60;;;;;;5101343;28;20090;-71
2021/03/08 06:06:52;;;;;;;29.38;6.00;;;11.20;56.80;;;;;;5100724;28;20424;-70
2021/03/08 06:09:33;;;;;;;28.30;6.78;;;11.20;57.30;;;;;;5103824;28;20026;-71
2021/03/08 06:12:12;;;;;;;27.90;6.10;;;11.00;57.20;;;;;;5101035;28;20438;-70
2021/03/08 06:14:43;;;;;;;21.80;5.25;;;11.00;57.40;;;;;;5104123;28;20024;-70
2021/03/08 06:17:17;;;;;;;23.10;6.47;;;10.90;57.70;;;;;;5101913;28;20024;-71
2021/03/08 06:19:44;;;;;;;25.67;6.63;;;10.90;58.40;;;;;;5102648;28;20028;-70
2021/03/08 06:22:13;;;;;;;28.10;7.85;;;10.80;58.50;;;;;;5096863;28;20038;-70
2021/03/08 06:24:44;;;;;;;26.35;6.22;;;10.70;57.90;;;;;;5088263;28;20342;-70
2021/03/08 06:27:15;;;;;;;23.98;5.00;;;10.60;58.80;;;;;;5092809;28;20030;-70
2021/03/08 06:29:43;;;;;;;21.33;5.85;;;10.50;58.50;;;;;;5092977;28;20048;-70
2021/03/08 06:32:12;;;;;;;20.20;6.85;;;10.40;59.50;;;;;;5095211;28;20468;-70
2021/03/08 06:34:40;;;;;;;36.30;6.00;;;10.30;58.50;;;;;;5090751;28;20023;-69
2021/03/08 06:37:08;;;;;;;26.10;5.35;;;10.20;59.30;;;;;;5087430;28;20027;-71
2021/03/08 06:39:39;;;;;;;23.30;5.40;;;10.10;59.50;;;;;;5093596;28;20127;-70
2021/03/08 06:42:07;;;;;;;20.15;5.75;;;10.00;60.00;;;;;;5095027;28;20028;-70
2021/03/08 06:44:35;;;;;;;19.92;4.45;;;10.00;60.10;;;;;;5100361;28;20139;-70
2021/03/08 06:47:04;;;;;;;28.95;6.13;;;10.10;58.80;;;;;;5102383;28;20463;-70
2021/03/08 06:49:32;;;;;;;28.10;6.45;;;10.10;58.80;;;;;;5104682;28;20085;-70
2021/03/08 06:52:02;;;;;;;28.83;7.25;;;10.00;59.80;;;;;;5102960;28;20020;-70
2021/03/08 06:54:30;;;;;;;21.70;6.15;;;9.90;59.00;;;;;;5096664;28;20064;-69
2021/03/08 06:56:56;;;;;;;30.13;6.38;;;9.90;59.00;;;;;;5099619;28;20620;-70
2021/03/08 06:59:23;;;;;;;26.33;8.95;;;9.90;60.00;;;;;;5101777;28;20020;-70
2021/03/08 07:01:52;;;;;;;29.35;6.93;;;9.90;59.90;;;;;;5101244;28;20056;-70
2021/03/08 07:04:27;;;;;;;25.92;7.35;;;9.80;61.00;;;;;;5100645;28;20107;-70
2021/03/08 07:07:20;;;;;;;25.67;5.97;;;9.80;59.60;;;;;;5101534;28;20030;-70
2021/03/08 07:09:50;;;;;;;27.33;7.00;;;10.00;60.20;;;;;;5097924;28;20031;-69
2021/03/08 07:12:18;;;;;;;29.48;5.95;;;10.00;60.00;;;;;;5104479;28;20582;-70
2021/03/08 07:14:45;;;;;;;19.98;5.47;;;10.00;60.70;;;;;;5098813;28;20028;-70
2021/03/08 07:17:35;;;;;;;22.65;6.20;;;10.10;61.10;;;;;;5098883;28;20111;-70
2021/03/08 07:20:07;;;;;;;20.58;6.35;;;10.20;60.90;;;;;;5098417;28;20034;-70
2021/03/08 07:22:47;;;;;;;;;;;10.10;61.00;;;;;;5102952;28;20027;-69
2021/03/08 07:25:21;;;;;;;37.83;7.90;;;10.10;60.90;;;;;;5101605;28;19907;-71
2021/03/08 07:27:53;;;;;;;26.58;6.35;;;10.00;61.60;;;;;;5099289;28;20020;-71
2021/03/08 07:30:23;;;;;;;33.92;7.80;;;10.00;61.50;;;;;;5097012;28;20365;-70
2021/03/08 07:33:06;;;;;;;24.02;6.78;;;10.10;61.80;;;;;;5100572;28;20059;-70
2021/03/08 07:35:33;;;;;;;31.38;5.60;;;10.10;61.40;;;;;;5102859;28;20020;-70
2021/03/08 07:38:00;;;;;;;26.77;7.57;;;10.00;60.90;;;;;;5099002;28;20533;-70
2021/03/08 07:40:27;;;;;;;30.35;6.05;;;10.00;61.90;;;;;;5100202;28;20043;-70
2021/03/08 07:42:54;;;;;;;31.90;5.97;;;10.00;61.20;;;;;;5096257;28;20449;-70
2021/03/08 07:45:23;;;;;;;35.50;9.10;;;10.00;61.30;;;;;;5098812;28;20419;-70
2021/03/08 07:48:08;;;;;;;19.92;5.55;;;10.00;62.20;;;;;;5098905;28;20024;-70
2021/03/08 07:50:35;;;;;;;25.20;5.80;;;9.90;61.60;;;;;;5099027;28;20046;-70
2021/03/08 07:53:01;;;;;;;33.60;6.53;;;9.80;62.00;;;;;;5103025;28;20024;-70
2021/03/08 07:55:35;;;;;;;23.48;5.68;;;9.80;61.30;;;;;;5099073;28;20035;-70
2021/03/08 07:58:03;;;;;;;19.95;5.50;;;9.80;61.00;;;;;;5096808;28;20016;-70
2021/03/08 08:00:31;;;;;;;31.05;6.25;;;9.70;60.90;;;;;;5098827;28;20447;-71
2021/03/08 08:02:58;;;;;;;16.05;5.25;;;9.70;61.30;;;;;;5099568;28;20060;-69
2021/03/08 08:05:25;;;;;;;27.30;6.13;;;9.70;60.90;;;;;;5093936;28;20088;-71
2021/03/08 08:07:52;;;;;;;26.13;5.97;;;9.70;61.80;;;;;;5100318;28;20020;-70
2021/03/08 08:10:20;;;;;;;20.02;6.57;;;9.70;62.10;;;;;;5100641;28;20035;-70
2021/03/08 08:12:49;;;;;;;30.52;7.25;;;9.60;61.80;;;;;;5098706;28;20028;-71
2021/03/08 08:15:19;;;;;;;22.67;5.55;;;9.60;61.50;;;;;;5099076;28;20364;-71
2021/03/08 08:17:48;;;;;;;27.67;5.97;;;9.50;62.20;;;;;;5090908;28;20028;-70
2021/03/08 08:20:15;;;;;;;18.42;5.22;;;9.60;62.20;;;;;;5095868;28;20034;-70
2021/03/08 08:22:55;;;;;;;29.38;6.72;;;9.50;62.20;;;;;;5093189;28;20067;-70
2021/03/08 08:25:22;;;;;;;31.92;8.35;;;9.60;62.10;;;;;;5092912;28;20028;-71
2021/03/08 08:27:49;;;;;;;25.35;6.50;;;9.50;61.90;;;;;;5092608;28;20085;-71
2021/03/08 08:30:17;;;;;;;25.33;5.13;;;9.50;63.10;;;;;;5102381;28;20039;-69
2021/03/08 08:33:01;;;;;;;21.45;5.13;;;9.40;63.00;;;;;;5100190;28;20028;-71
2021/03/08 08:35:32;;;;;;;25.05;5.85;;;9.40;62.30;;;;;;5091864;28;20103;-69
2021/03/08 08:38:08;;;;;;;24.75;6.38;;;9.50;62.20;;;;;;5100134;28;20145;-69
2021/03/08 08:40:36;;;;;;;24.83;6.30;;;9.40;62.10;;;;;;5101080;28;20046;-69
2021/03/08 08:43:14;;;;;;;18.98;6.53;;;9.40;62.00;;;;;;5094523;28;20028;-70
2021/03/08 08:45:45;;;;;;;24.00;6.03;;;9.30;63.10;;;;;;5100323;28;20027;-71
2021/03/08 08:48:12;;;;;;;14.63;4.47;;;9.40;63.20;;;;;;5097065;28;20139;-70
2021/03/08 08:50:47;;;;;;;25.73;4.68;;;9.30;63.70;;;;;;5096993;28;20063;-71
2021/03/08 08:53:39;;;;;;;19.30;5.03;;;9.30;63.50;;;;;;5103244;28;20024;-70
2021/03/08 08:56:07;;;;;;;19.55;5.35;;;9.30;62.60;;;;;;5102866;28;20027;-70
2021/03/08 08:58:48;;;;;;;23.55;5.32;;;9.40;63.40;;;;;;5098761;28;20024;-70
2021/03/08 09:01:17;;;;;;;21.38;6.13;;;9.30;62.50;;;;;;5102094;28;20338;-70
2021/03/08 09:03:59;;;;;;;15.73;5.22;;;9.30;62.30;;;;;;5100008;28;20055;-70
2021/03/08 09:06:45;;;;;;;21.95;5.65;;;9.40;62.70;;;;;;5099400;28;20535;-69
2021/03/08 09:09:20;;;;;;;15.50;4.80;;;9.40;62.60;;;;;;5101925;28;20612;-70
2021/03/08 09:11:52;;;;;;;16.05;4.40;;;9.40;63.20;;;;;;5101712;28;20058;-70
2021/03/08 09:14:37;;;;;;;24.95;5.60;;;9.40;63.40;;;;;;5102635;28;20015;-69
2021/03/08 09:17:11;;;;;;;13.43;4.40;;;9.50;63.00;;;;;;5099515;28;20032;-70
2021/03/08 09:19:38;;;;;;;30.50;6.55;;;9.50;63.50;;;;;;5101062;28;20081;-70
2021/03/08 09:22:23;;;;;;;17.20;4.63;;;9.50;61.60;;;;;;5105048;27;20043;-70
2021/03/08 09:24:51;;;;;;;18.48;5.00;;;9.50;62.60;;;;;;5103544;28;20081;-70
2021/03/08 09:27:22;;;;;;;23.63;4.55;;;9.60;63.00;;;;;;5103769;28;20115;-70
2021/03/08 09:29:49;;;;;;;25.85;6.03;;;9.60;62.80;;;;;;5101557;28;20027;-69
2021/03/08 09:32:17;;;;;;;24.08;6.38;;;9.60;61.70;;;;;;5103615;28;20084;-69
2021/03/08 09:34:43;;;;;;;9.82;4.13;;;9.70;61.50;;;;;;5095214;28;20032;-70
2021/03/08 09:37:11;;;;;;;20.15;6.07;;;9.60;62.80;;;;;;5102863;28;20020;-70
2021/03/08 09:39:54;;;;;;;22.75;6.32;;;9.60;62.30;;;;;;5101893;28;20450;-70
2021/03/08 09:42:21;;;;;;;18.70;4.25;;;9.70;61.40;;;;;;5098844;28;20032;-70
2021/03/08 09:44:49;;;;;;;14.82;4.35;;;9.70;62.10;;;;;;5100242;28;20381;-69
2021/03/08 09:47:16;;;;;;;18.75;5.60;;;9.80;63.10;;;;;;5104695;28;20024;-70
2021/03/08 09:49:51;;;;;;;25.15;5.85;;;9.70;63.00;;;;;;5101387;28;20106;-70
2021/03/08 09:52:52;;;;;;;14.60;3.92;;;9.70;61.50;;;;;;5097663;28;20453;-70
2021/03/08 09:55:25;;;;;;;22.02;4.25;;;9.70;62.00;;;;;;5064086;28;20059;-70
2021/03/08 09:57:52;;;;;;;11.07;3.72;;;9.70;62.40;;;;;;5102394;28;20073;-70
2021/03/08 10:00:23;;;;;;;25.30;6.45;;;9.60;62.50;;;;;;5099907;28;20150;-70
2021/03/08 10:03:04;;;;;;;19.05;4.30;;;9.70;61.90;;;;;;5102297;28;20081;-70
2021/03/08 10:05:43;;;;;;;17.60;4.38;;;9.60;61.10;;;;;;5083794;28;20038;-71
2021/03/08 10:08:17;;;;;;;22.67;5.05;;;9.60;61.60;;;;;;5103486;28;20035;-71
2021/03/08 10:10:45;;;;;;;19.65;4.60;;;9.50;62.10;;;;;;5101948;28;20084;-71
2021/03/08 10:13:11;;;;;;;8.90;4.10;;;9.40;62.30;;;;;;5094221;28;20024;-70
2021/03/08 10:15:48;;;;;;;8.18;4.05;;;9.40;62.80;;;;;;5103012;28;20020;-70
2021/03/08 10:18:17;;;;;;;25.48;5.70;;;9.40;62.00;;;;;;5100254;28;20032;-70
2021/03/08 10:21:05;;;;;;;27.58;5.28;;;9.40;60.70;;;;;;5104157;28;20494;-70
2021/03/08 10:23:34;;;;;;;22.25;4.70;;;9.40;60.90;;;;;;5104871;28;20480;-70
2021/03/08 10:26:18;;;;;;;16.85;4.05;;;9.30;61.10;;;;;;5103835;28;20053;-70
2021/03/08 10:28:52;;;;;;;22.08;5.20;;;9.20;62.30;;;;;;5103838;28;20031;-70
2021/03/08 10:31:27;;;;;;;18.33;4.65;;;9.30;61.60;;;;;;5104314;28;20028;-70
2021/03/08 10:34:00;;;;;;;18.25;4.13;;;9.20;61.30;;;;;;5098053;28;20047;-69
2021/03/08 10:36:29;;;;;;;17.55;5.65;;;9.10;62.80;;;;;;5099621;28;20077;-70
2021/03/08 10:39:00;;;;;;;15.90;4.55;;;9.10;62.90;;;;;;5100154;28;20052;-69
2021/03/08 10:41:28;;;;;;;14.70;5.10;;;9.10;62.80;;;;;;5100577;28;20031;-70
2021/03/08 10:43:55;;;;;;;13.13;4.25;;;9.10;63.80;;;;;;5104967;28;20034;-70
2021/03/08 10:46:31;;;;;;;15.75;4.38;;;9.10;63.00;;;;;;5100870;28;20418;-70
2021/03/08 10:48:59;;;;;;;12.63;4.50;;;9.10;62.70;;;;;;5092677;28;20060;-70
2021/03/08 10:51:26;;;;;;;12.48;4.38;;;9.10;61.90;;;;;;5097171;28;20024;-70
2021/03/08 10:54:04;;;;;;;14.40;4.20;;;9.10;63.30;;;;;;5099876;28;20020;-71
2021/03/08 10:56:32;;;;;;;22.83;4.97;;;9.10;62.40;;;;;;5099437;28;20031;-70
2021/03/08 10:59:00;;;;;;;17.98;4.53;;;9.10;63.60;;;;;;5099515;28;20027;-70
2021/03/08 11:01:28;;;;;;;19.73;7.03;;;9.10;63.60;;;;;;5095959;28;20024;-70
2021/03/08 11:03:55;;;;;;;20.90;5.65;;;9.20;63.50;;;;;;5100018;28;20028;-70
2021/03/08 11:06:23;;;;;;;18.83;4.45;;;9.30;62.20;;;;;;5100929;28;20039;-71
2021/03/08 11:09:02;;;;;;;21.70;4.63;;;9.30;63.40;;;;;;5102653;28;20031;-71
2021/03/08 11:11:33;;;;;;;15.38;4.95;;;9.30;62.90;;;;;;5102685;28;20076;-70
2021/03/08 11:14:02;;;;;;;23.00;4.68;;;9.40;63.50;;;;;;5102516;28;20197;-70
2021/03/08 11:16:29;;;;;;;15.25;4.47;;;9.50;62.10;;;;;;5100929;28;20035;-70
2021/03/08 11:19:21;;;;;;;9.18;3.85;;;9.40;63.30;;;;;;5099648;28;20154;-70
2021/03/08 11:22:07;;;;;;;15.33;4.80;;;9.30;63.60;;;;;;5099449;28;20150;-70
2021/03/08 11:24:49;;;;;;;18.83;6.30;;;9.30;63.80;;;;;;5096760;28;20622;-70
2021/03/08 11:27:28;;;;;;;18.20;4.50;;;9.40;62.90;;;;;;5098033;28;20027;-70
2021/03/08 11:30:10;;;;;;;19.15;4.95;;;9.40;62.80;;;;;;5095639;28;20400;-72
2021/03/08 11:32:38;;;;;;;16.58;4.97;;;9.40;62.20;;;;;;5101474;28;20032;-69
2021/03/08 11:35:06;;;;;;;23.15;5.25;;;9.30;62.60;;;;;;5098007;28;20027;-72
2021/03/08 11:37:33;;;;;;;13.70;4.78;;;9.40;62.30;;;;;;5101622;28;20038;-71
2021/03/08 11:40:06;;;;;;;32.55;7.38;;;9.40;62.70;;;;;;5097348;28;20039;-71
2021/03/08 11:42:33;;;;;;;17.92;4.38;;;9.30;61.90;;;;;;5097446;28;20039;-71
2021/03/08 11:44:59;;;;;;;22.25;6.13;;;9.30;61.50;;;;;;5098579;28;20028;-71
2021/03/08 11:47:26;;;;;;;19.48;4.95;;;9.30;61.60;;;;;;5099466;28;20058;-72
2021/03/08 11:49:57;;;;;;;14.15;5.43;;;9.40;61.80;;;;;;5100545;28;20062;-71
2021/03/08 11:52:24;;;;;;;19.83;5.07;;;9.30;61.50;;;;;;5095838;28;20752;-71
2021/03/08 11:54:50;;;;;;;21.00;4.35;;;9.30;61.80;;;;;;5094295;28;20428;-71
2021/03/08 11:57:17;;;;;;;13.18;4.07;;;9.20;61.50;;;;;;5101311;28;20069;-72
2021/03/08 11:59:45;;;;;;;19.58;4.75;;;9.20;62.50;;;;;;5097635;28;20027;-69
2021/03/08 12:02:12;;;;;;;15.88;3.88;;;9.20;61.80;;;;;;5099399;28;20035;-70
2021/03/08 12:04:38;;;;;;;26.88;4.60;;;9.10;63.40;;;;;;5098700;28;20028;-70
2021/03/08 12:07:05;;;;;;;14.55;4.25;;;9.10;62.80;;;;;;5099341;28;20036;-69
2021/03/08 12:09:33;;;;;;;26.60;6.97;;;9.00;62.90;;;;;;5101304;28;20040;-70
2021/03/08 12:12:00;;;;;;;16.00;5.28;;;9.10;62.10;;;;;;5097685;28;20076;-69
2021/03/08 12:14:30;;;;;;;23.92;5.68;;;9.20;62.20;;;;;;5095869;28;20096;-70
2021/03/08 12:16:56;;;;;;;16.85;4.28;;;9.10;61.70;;;;;;5097766;28;20027;-70
2021/03/08 12:19:23;;;;;;;14.13;6.38;;;9.00;62.40;;;;;;5097464;28;20084;-70
2021/03/08 12:21:49;;;;;;;19.38;6.45;;;9.00;61.90;;;;;;5098491;28;20028;-70
2021/03/08 12:24:16;;;;;;;22.98;5.63;;;9.00;61.60;;;;;;5095191;28;20110;-70
2021/03/08 12:26:42;;;;;;;26.02;5.53;;;8.90;61.90;;;;;;5100639;28;20361;-70
2021/03/08 12:29:09;;;;;;;17.70;5.88;;;8.90;61.70;;;;;;5105365;28;20094;-70
2021/03/08 12:31:35;;;;;;;15.45;5.05;;;8.90;61.80;;;;;;5104306;28;20055;-70
2021/03/08 12:34:01;;;;;;;20.27;5.05;;;8.80;62.50;;;;;;5103566;28;20093;-70
2021/03/08 12:36:28;;;;;;;19.02;5.75;;;8.80;62.40;;;;;;5106229;28;20036;-70
2021/03/08 12:38:54;;;;;;;24.75;6.30;;;8.80;62.00;;;;;;5105471;28;20020;-70
2021/03/08 12:41:21;;;;;;;18.13;6.53;;;8.90;61.90;;;;;;5102019;28;20086;-70
2021/03/08 12:43:49;;;;;;;31.83;8.48;;;8.80;63.00;;;;;;5104859;28;20111;-70
2021/03/08 12:46:15;;;;;;;13.48;4.45;;;8.80;62.60;;;;;;5105491;28;20057;-70
2021/03/08 12:48:42;;;;;;;26.17;6.30;;;8.70;63.10;;;;;;5103312;28;20054;-70
2021/03/08 12:51:08;;;;;;;18.10;6.35;;;8.80;62.60;;;;;;5104386;28;20445;-70
2021/03/08 12:53:35;;;;;;;26.33;6.90;;;8.90;62.70;;;;;;5103014;28;20032;-70
2021/03/08 12:56:02;;;;;;;22.75;5.05;;;8.90;62.50;;;;;;5106288;28;20080;-71
2021/03/08 12:58:28;;;;;;;17.65;5.68;;;8.90;63.50;;;;;;5103106;28;20443;-69
2021/03/08 13:00:54;;;;;;;27.90;6.55;;;8.90;63.10;;;;;;5105037;28;20358;-70
2021/03/08 13:03:21;;;;;;;18.75;5.75;;;8.90;62.60;;;;;;5104563;28;20430;-70